Time;durP1;ratioP1;P1;durP2;ratioP2;P2;SDS_P1;SDS_P2;PMS_P1;PMS_P2;Temp;Humidity;BMP_temperature;BMP_pressure;BME280_temperature;BME280_humidity;BME280_pressure;Samples;Min_cycle;Max_cycle;Signal;HPM_P1;HPM_P2
2023/10/19 00:00:50;;;;;;;13.40;8.52;;;8.20;99.90;;;;;;5014974;28;20043;-76
2023/10/19 00:03:19;;;;;;;13.30;8.95;;;8.20;99.90;;;;;;5014807;28;20038;-75
2023/10/19 00:05:46;;;;;;;15.13;9.60;;;8.20;99.90;;;;;;5013983;28;20041;-76
2023/10/19 00:10:40;;;;;;;13.10;8.23;;;8.20;99.90;;;;;;5014700;28;20053;-75
2023/10/19 00:13:08;;;;;;;15.18;8.85;;;8.20;99.90;;;;;;5014680;28;20081;-76
2023/10/19 00:15:46;;;;;;;12.32;8.35;;;8.10;99.90;;;;;;5014697;28;20046;-76
2023/10/19 00:20:51;;;;;;;11.75;8.55;;;8.20;99.90;;;;;;5015481;28;20379;-76
2023/10/19 00:23:34;;;;;;;12.45;9.10;;;8.10;99.90;;;;;;5014266;28;20474;-75
2023/10/19 00:26:08;;;;;;;13.07;9.38;;;8.10;99.90;;;;;;5014046;28;20467;-75
2023/10/19 00:28:35;;;;;;;14.68;9.75;;;8.10;99.90;;;;;;4998027;28;20085;-75
2023/10/19 00:31:07;;;;;;;12.48;9.05;;;8.10;99.90;;;;;;5013526;28;20042;-75
2023/10/19 00:33:39;;;;;;;12.82;8.52;;;8.10;99.90;;;;;;4998280;28;20107;-76
2023/10/19 00:36:09;;;;;;;13.38;9.02;;;8.10;99.90;;;;;;5014320;28;20463;-76
2023/10/19 00:43:49;;;;;;;16.17;9.20;;;8.20;99.90;;;;;;4998374;28;20076;-76
2023/10/19 00:48:50;;;;;;;12.90;8.73;;;8.20;99.90;;;;;;5014239;28;20184;-76
2023/10/19 00:53:59;;;;;;;15.95;10.57;;;8.20;99.90;;;;;;5012687;28;20058;-76
2023/10/19 00:56:32;;;;;;;14.75;9.43;;;8.10;99.90;;;;;;5014159;28;20116;-76
2023/10/19 00:59:00;;;;;;;16.30;9.80;;;8.10;99.90;;;;;;5014601;28;20041;-76
2023/10/19 01:01:29;;;;;;;13.70;9.98;;;8.10;99.90;;;;;;5013261;28;20050;-75
2023/10/19 01:03:58;;;;;;;14.20;9.48;;;8.10;99.90;;;;;;4996711;28;20050;-75
2023/10/19 01:06:25;;;;;;;14.63;9.95;;;8.10;99.90;;;;;;5013018;28;20049;-75
2023/10/19 01:08:52;;;;;;;15.27;9.68;;;8.10;99.90;;;;;;5012654;28;20042;-76
2023/10/19 01:11:21;;;;;;;13.43;9.35;;;8.10;99.90;;;;;;5013810;28;20037;-75
2023/10/19 01:13:48;;;;;;;13.80;10.20;;;8.20;99.90;;;;;;5013941;28;20100;-76
2023/10/19 01:16:20;;;;;;;16.40;10.05;;;8.10;99.90;;;;;;5012958;28;20038;-75
2023/10/19 01:18:53;;;;;;;14.68;9.85;;;8.20;99.90;;;;;;5013735;28;20034;-75
2023/10/19 01:21:37;;;;;;;15.05;10.20;;;8.10;99.90;;;;;;4996453;28;20081;-75
2023/10/19 01:24:09;;;;;;;14.07;9.73;;;8.10;99.90;;;;;;5013049;28;20080;-77
2023/10/19 01:26:37;;;;;;;14.00;10.05;;;8.10;99.90;;;;;;5013058;28;20130;-75
2023/10/19 01:29:16;;;;;;;15.40;10.20;;;8.10;99.90;;;;;;5012697;28;20147;-76
2023/10/19 01:31:55;;;;;;;14.80;9.82;;;8.10;99.90;;;;;;4998359;28;20041;-75
2023/10/19 01:34:22;;;;;;;14.93;10.13;;;8.10;99.90;;;;;;5013092;28;20478;-75
2023/10/19 01:36:50;;;;;;;15.23;10.50;;;8.10;99.90;;;;;;5013258;28;20509;-76
2023/10/19 01:39:18;;;;;;;14.35;9.50;;;8.20;99.90;;;;;;5012793;28;20049;-74
2023/10/19 01:41:45;;;;;;;15.43;10.57;;;8.10;99.90;;;;;;5012684;28;20528;-75
2023/10/19 01:44:15;;;;;;;13.95;10.23;;;8.10;99.90;;;;;;5012935;28;20045;-75
2023/10/19 01:46:43;;;;;;;13.15;9.55;;;8.10;99.90;;;;;;5013503;28;20459;-74
2023/10/19 01:49:09;;;;;;;14.90;9.98;;;8.10;99.90;;;;;;5012399;28;20097;-76
2023/10/19 01:51:38;;;;;;;14.57;9.75;;;8.10;99.90;;;;;;5013803;28;20069;-76
2023/10/19 01:54:06;;;;;;;13.45;9.30;;;8.10;99.90;;;;;;5013508;28;20042;-75
2023/10/19 01:56:35;;;;;;;14.00;9.85;;;8.10;99.90;;;;;;5014295;28;20139;-75
2023/10/19 01:59:01;;;;;;;14.70;9.82;;;8.10;99.90;;;;;;5015914;28;20125;-75
2023/10/19 02:04:15;;;;;;;16.27;10.45;;;8.10;99.90;;;;;;5017174;28;20481;-75
2023/10/19 02:06:40;;;;;;;16.42;10.43;;;8.10;99.90;;;;;;5016678;28;20064;-75
2023/10/19 02:09:17;;;;;;;15.73;10.13;;;8.10;99.90;;;;;;5017035;28;20394;-75
2023/10/19 02:11:46;;;;;;;14.07;9.50;;;8.10;99.90;;;;;;5016561;28;20467;-75
2023/10/19 02:14:15;;;;;;;15.45;10.30;;;8.10;99.90;;;;;;5016886;28;20038;-75
2023/10/19 02:16:46;;;;;;;14.13;10.50;;;8.10;99.90;;;;;;5000874;28;20049;-74
2023/10/19 02:19:13;;;;;;;14.82;10.00;;;8.10;99.90;;;;;;5016307;28;20042;-75
2023/10/19 02:21:42;;;;;;;15.27;10.32;;;8.10;99.90;;;;;;5016760;28;20060;-76
2023/10/19 02:24:09;;;;;;;14.60;9.82;;;8.10;99.90;;;;;;4999392;28;20111;-75
2023/10/19 02:26:37;;;;;;;13.45;9.57;;;8.10;99.90;;;;;;5016764;28;20046;-75
2023/10/19 02:29:10;;;;;;;14.93;9.85;;;8.10;99.90;;;;;;5016419;28;20076;-75
2023/10/19 02:31:42;;;;;;;14.80;9.95;;;8.10;99.90;;;;;;5016350;28;20340;-75
2023/10/19 02:34:10;;;;;;;13.15;9.60;;;8.10;99.90;;;;;;5016582;28;20125;-75
2023/10/19 02:36:37;;;;;;;12.65;9.23;;;8.10;99.90;;;;;;5016491;28;20042;-74
2023/10/19 02:39:09;;;;;;;13.35;9.32;;;8.10;99.90;;;;;;5015434;28;20057;-75
2023/10/19 02:41:36;;;;;;;14.55;10.23;;;8.10;99.90;;;;;;5016559;28;20522;-74
2023/10/19 02:44:09;;;;;;;13.02;8.85;;;8.10;99.90;;;;;;5016424;28;20041;-76
2023/10/19 02:46:38;;;;;;;13.23;9.32;;;8.10;99.90;;;;;;5017069;28;20061;-75
2023/10/19 02:49:13;;;;;;;13.70;9.02;;;8.10;99.90;;;;;;5015951;28;20045;-75
2023/10/19 02:51:41;;;;;;;13.60;9.60;;;8.10;99.90;;;;;;5015283;28;20120;-74
2023/10/19 02:54:07;;;;;;;13.20;9.15;;;8.10;99.90;;;;;;5015002;28;20137;-74
2023/10/19 02:56:42;;;;;;;13.02;8.82;;;8.10;99.90;;;;;;5014715;28;20539;-74
2023/10/19 02:59:10;;;;;;;10.77;8.27;;;8.20;99.90;;;;;;5015928;28;20054;-74
2023/10/19 03:01:36;;;;;;;13.32;8.75;;;8.20;99.90;;;;;;5015097;28;20107;-75
2023/10/19 03:04:04;;;;;;;11.90;8.40;;;8.20;99.90;;;;;;5015998;28;20041;-75
2023/10/19 03:06:34;;;;;;;10.95;7.53;;;8.20;99.90;;;;;;5015228;28;20065;-75
2023/10/19 03:09:05;;;;;;;10.98;8.15;;;8.20;99.90;;;;;;5013580;28;20054;-75
2023/10/19 03:11:34;;;;;;;11.10;8.30;;;8.20;99.90;;;;;;5015927;28;20077;-74
2023/10/19 03:14:04;;;;;;;12.35;8.75;;;8.20;99.90;;;;;;5016614;28;20413;-74
2023/10/19 03:16:30;;;;;;;10.65;7.88;;;8.20;99.90;;;;;;5015701;28;20045;-74
2023/10/19 03:18:56;;;;;;;9.52;7.47;;;8.20;99.90;;;;;;5015377;28;20344;-74
2023/10/19 03:21:27;;;;;;;11.60;7.75;;;8.20;99.90;;;;;;5015970;28;20049;-74
2023/10/19 03:23:56;;;;;;;10.32;7.57;;;8.30;99.90;;;;;;5016136;28;20487;-74
2023/10/19 03:26:23;;;;;;;10.43;7.05;;;8.20;99.90;;;;;;5014510;28;20084;-74
2023/10/19 03:28:55;;;;;;;10.20;7.53;;;8.20;99.90;;;;;;5015492;28;20044;-73
2023/10/19 03:31:27;;;;;;;9.93;7.40;;;8.30;99.90;;;;;;5015280;28;20418;-74
2023/10/19 03:33:54;;;;;;;10.60;7.65;;;8.30;99.90;;;;;;5014424;28;20056;-74
2023/10/19 03:36:21;;;;;;;9.80;7.32;;;8.30;99.90;;;;;;5015422;28;20104;-74
2023/10/19 03:38:49;;;;;;;9.35;6.78;;;8.30;99.90;;;;;;5015345;28;20046;-74
2023/10/19 03:41:16;;;;;;;10.35;7.60;;;8.30;99.90;;;;;;4999135;28;20041;-74
2023/10/19 03:43:42;;;;;;;12.20;7.22;;;8.30;99.90;;;;;;5015524;28;20045;-74
2023/10/19 03:46:28;;;;;;;11.00;7.68;;;8.30;99.90;;;;;;5014603;28;20197;-73
2023/10/19 03:48:58;;;;;;;10.45;8.02;;;8.30;99.90;;;;;;5014263;28;20041;-74
2023/10/19 03:51:26;;;;;;;11.13;8.00;;;8.30;99.90;;;;;;5015129;28;20088;-74
2023/10/19 03:53:58;;;;;;;12.77;8.85;;;8.30;99.90;;;;;;4997556;28;20426;-74
2023/10/19 03:56:24;;;;;;;11.30;8.60;;;8.40;99.90;;;;;;5014904;28;20046;-74
2023/10/19 03:58:50;;;;;;;16.52;8.57;;;8.30;99.90;;;;;;5014956;28;20046;-74
2023/10/19 04:01:19;;;;;;;12.43;7.85;;;8.40;99.90;;;;;;5014271;28;20041;-75
2023/10/19 04:03:45;;;;;;;10.90;7.82;;;8.30;99.90;;;;;;5014202;28;20370;-75
2023/10/19 04:06:14;;;;;;;12.15;8.50;;;8.30;99.90;;;;;;5014898;28;20046;-74
2023/10/19 04:08:42;;;;;;;10.23;8.02;;;8.40;99.90;;;;;;5013828;28;20042;-74
2023/10/19 04:11:12;;;;;;;9.88;7.22;;;8.40;99.90;;;;;;5015274;28;20038;-74
2023/10/19 04:13:40;;;;;;;10.50;7.15;;;8.40;99.90;;;;;;5014706;28;20477;-74
2023/10/19 04:16:09;;;;;;;10.20;7.65;;;8.40;99.90;;;;;;5014616;28;20408;-74
2023/10/19 04:18:39;;;;;;;10.77;7.07;;;8.40;99.90;;;;;;5013720;28;20051;-73
2023/10/19 04:21:05;;;;;;;10.13;7.50;;;8.40;99.90;;;;;;5013355;28;20479;-73
2023/10/19 04:23:34;;;;;;;9.02;7.00;;;8.40;99.90;;;;;;5013802;28;20069;-74
2023/10/19 04:26:05;;;;;;;10.05;7.35;;;8.40;99.90;;;;;;5014253;28;20125;-73
2023/10/19 04:28:37;;;;;;;10.48;7.30;;;8.40;99.90;;;;;;5014402;28;20057;-73
2023/10/19 04:31:03;;;;;;;9.75;7.63;;;8.40;99.90;;;;;;5014036;28;20081;-73
2023/10/19 04:33:31;;;;;;;9.45;6.95;;;8.40;99.90;;;;;;5013157;28;20088;-74
2023/10/19 04:36:00;;;;;;;10.18;6.95;;;8.40;99.90;;;;;;5014061;28;20044;-73
2023/10/19 04:38:30;;;;;;;9.48;6.47;;;8.40;99.90;;;;;;5014287;28;20046;-73
2023/10/19 04:41:12;;;;;;;9.05;6.65;;;8.40;99.90;;;;;;5013329;28;20056;-73
2023/10/19 04:43:39;;;;;;;8.98;6.75;;;8.40;99.90;;;;;;5014081;28;20129;-73
2023/10/19 04:46:12;;;;;;;9.52;6.68;;;8.40;99.90;;;;;;5014257;28;20046;-74
2023/10/19 04:48:39;;;;;;;8.70;6.30;;;8.40;99.90;;;;;;5014279;28;20050;-75
2023/10/19 04:51:07;;;;;;;9.35;6.65;;;8.50;99.90;;;;;;5014100;28;20383;-74
2023/10/19 04:53:33;;;;;;;9.15;6.82;;;8.50;99.90;;;;;;5013469;28;20362;-74
2023/10/19 04:56:03;;;;;;;9.25;6.65;;;8.50;99.90;;;;;;5014564;28;20050;-74
2023/10/19 04:58:29;;;;;;;8.98;6.28;;;8.50;99.90;;;;;;5014743;28;20050;-74
2023/10/19 05:00:55;;;;;;;9.40;5.88;;;8.50;99.90;;;;;;5014573;28;20046;-73
2023/10/19 05:03:21;;;;;;;7.95;5.75;;;8.50;99.90;;;;;;5014432;28;20042;-74
2023/10/19 05:05:47;;;;;;;8.48;6.20;;;8.50;99.90;;;;;;5014816;28;20365;-73
2023/10/19 05:08:12;;;;;;;7.65;5.90;;;8.50;99.90;;;;;;5013575;28;20045;-74
2023/10/19 05:10:38;;;;;;;10.80;6.90;;;8.50;99.90;;;;;;5013863;28;20129;-74
2023/10/19 05:13:04;;;;;;;16.60;6.68;;;8.60;99.90;;;;;;5012889;28;20084;-74
2023/10/19 05:15:30;;;;;;;7.97;5.93;;;8.60;99.90;;;;;;5013775;28;20129;-73
2023/10/19 05:17:56;;;;;;;8.35;5.57;;;8.60;99.90;;;;;;5013558;28;20479;-74
2023/10/19 05:20:23;;;;;;;10.15;5.80;;;8.60;99.90;;;;;;5013790;28;20048;-74
2023/10/19 05:22:49;;;;;;;7.80;5.28;;;8.60;99.90;;;;;;5013826;28;20122;-73
2023/10/19 05:25:15;;;;;;;8.02;5.53;;;8.60;99.90;;;;;;5013923;28;20482;-74
2023/10/19 05:27:42;;;;;;;7.97;5.80;;;8.60;99.90;;;;;;5013381;28;20466;-74
2023/10/19 05:30:11;;;;;;;6.93;5.47;;;8.60;99.90;;;;;;5013171;28;20096;-74
2023/10/19 05:32:37;;;;;;;6.40;5.43;;;8.60;99.90;;;;;;5015237;28;20210;-74
2023/10/19 05:35:04;;;;;;;6.65;5.47;;;8.60;99.90;;;;;;5018264;28;20128;-74
2023/10/19 05:37:31;;;;;;;8.35;7.00;;;8.60;99.90;;;;;;5017538;28;20042;-74
2023/10/19 05:39:57;;;;;;;7.43;5.40;;;8.60;99.90;;;;;;5016629;28;20050;-74
2023/10/19 05:42:23;;;;;;;7.60;5.32;;;8.60;99.90;;;;;;5017732;28;20099;-74
2023/10/19 05:44:48;;;;;;;6.50;4.80;;;8.60;99.90;;;;;;5016592;28;20056;-74
2023/10/19 05:47:14;;;;;;;7.50;5.10;;;8.60;99.90;;;;;;5016781;28;20042;-74
2023/10/19 05:49:39;;;;;;;6.53;4.85;;;8.70;99.90;;;;;;5017430;28;20129;-73
2023/10/19 05:52:05;;;;;;;6.82;5.00;;;8.70;99.90;;;;;;5017055;28;20046;-73
2023/10/19 05:54:31;;;;;;;7.03;5.03;;;8.70;99.90;;;;;;5017279;28;20053;-74
2023/10/19 05:56:58;;;;;;;6.25;5.10;;;8.70;99.90;;;;;;4999844;28;20104;-74
2023/10/19 05:59:26;;;;;;;6.32;4.75;;;8.70;99.90;;;;;;5017075;28;20367;-74
2023/10/19 06:01:52;;;;;;;6.45;4.35;;;8.70;99.90;;;;;;5016482;28;20089;-74
2023/10/19 06:04:19;;;;;;;5.35;4.15;;;8.70;99.90;;;;;;5016991;28;20042;-74
2023/10/19 06:06:45;;;;;;;5.20;3.97;;;8.70;99.90;;;;;;5015928;28;20054;-74
2023/10/19 06:09:11;;;;;;;5.10;4.18;;;8.70;99.90;;;;;;5017508;28;20127;-74
2023/10/19 06:11:42;;;;;;;4.95;4.18;;;8.70;99.90;;;;;;5015644;28;20034;-74
2023/10/19 06:14:09;;;;;;;4.85;3.67;;;8.70;99.90;;;;;;5015807;28;20042;-74
2023/10/19 06:16:35;;;;;;;5.93;4.10;;;8.70;99.90;;;;;;5016864;28;20076;-74
2023/10/19 06:19:02;;;;;;;4.97;3.83;;;8.80;99.90;;;;;;5016039;28;20108;-74
2023/10/19 06:21:27;;;;;;;5.05;4.00;;;8.70;99.90;;;;;;5017278;28;20045;-74
2023/10/19 06:23:54;;;;;;;5.95;3.83;;;8.80;99.90;;;;;;5015609;28;20053;-74
2023/10/19 06:26:20;;;;;;;5.00;3.55;;;8.70;99.90;;;;;;5015444;28;20050;-73
2023/10/19 06:28:46;;;;;;;5.32;4.40;;;8.70;99.90;;;;;;5016368;28;20038;-68
2023/10/19 06:31:12;;;;;;;4.97;4.00;;;8.70;99.90;;;;;;5016480;28;20045;-67
2023/10/19 06:33:41;;;;;;;5.70;4.32;;;8.70;99.90;;;;;;5016554;28;20084;-68
2023/10/19 06:36:07;;;;;;;5.20;3.70;;;8.70;99.90;;;;;;5016606;28;20041;-69
2023/10/19 06:38:33;;;;;;;5.15;3.53;;;8.80;99.90;;;;;;5016497;28;20203;-68
2023/10/19 06:41:13;;;;;;;8.95;3.80;;;8.70;99.90;;;;;;5017030;28;20120;-68
2023/10/19 06:43:40;;;;;;;5.40;3.97;;;8.80;99.90;;;;;;5016556;28;20076;-68
2023/10/19 06:46:05;;;;;;;5.78;4.10;;;8.80;99.90;;;;;;5017129;28;20050;-68
2023/10/19 06:48:32;;;;;;;4.60;3.47;;;8.80;99.90;;;;;;5016295;28;20463;-68
2023/10/19 06:50:58;;;;;;;5.70;4.22;;;8.80;99.90;;;;;;5016246;28;20061;-68
2023/10/19 06:53:24;;;;;;;6.43;4.55;;;8.80;99.90;;;;;;5016408;28;20056;-68
2023/10/19 06:55:50;;;;;;;4.57;3.42;;;8.80;99.90;;;;;;5016128;28;20085;-68
2023/10/19 06:58:19;;;;;;;5.78;3.90;;;8.90;99.90;;;;;;5016146;28;20046;-68
2023/10/19 07:00:45;;;;;;;5.22;4.20;;;8.80;99.90;;;;;;5016109;28;20046;-68
2023/10/19 07:03:11;;;;;;;4.57;3.50;;;8.90;99.90;;;;;;5015933;28;20042;-68
2023/10/19 07:05:37;;;;;;;4.35;3.45;;;8.90;99.90;;;;;;5015985;28;20129;-68
2023/10/19 07:08:06;;;;;;;4.55;3.55;;;8.90;99.90;;;;;;5015980;28;20099;-74
2023/10/19 07:10:34;;;;;;;4.63;3.58;;;8.90;99.90;;;;;;5015823;28;20103;-73
2023/10/19 07:13:00;;;;;;;5.20;3.60;;;8.90;99.90;;;;;;5015120;28;20046;-72
2023/10/19 07:15:26;;;;;;;4.32;3.60;;;8.90;99.90;;;;;;5015765;28;20045;-72
2023/10/19 07:17:54;;;;;;;4.88;3.63;;;8.90;99.90;;;;;;5014477;28;20072;-72
2023/10/19 07:20:31;;;;;;;4.20;3.50;;;8.90;99.90;;;;;;5015641;28;20417;-72
2023/10/19 07:25:55;;;;;;;4.22;3.30;;;8.90;99.90;;;;;;5015828;28;20124;-72
2023/10/19 07:28:22;;;;;;;4.88;3.75;;;8.90;99.90;;;;;;5015471;28;20088;-71
2023/10/19 07:30:48;;;;;;;4.73;3.50;;;9.00;99.90;;;;;;5014400;28;20042;-72
2023/10/19 07:33:17;;;;;;;6.10;3.40;;;9.00;99.90;;;;;;5015324;28;20049;-72
2023/10/19 07:35:46;;;;;;;4.90;3.38;;;9.00;99.90;;;;;;5015780;28;20386;-71
2023/10/19 07:38:16;;;;;;;4.97;3.70;;;9.00;99.90;;;;;;5014242;28;20081;-71
2023/10/19 07:40:43;;;;;;;5.45;3.38;;;9.10;99.90;;;;;;5015250;28;20042;-71
2023/10/19 07:43:09;;;;;;;3.88;3.13;;;9.10;99.90;;;;;;5015088;28;20037;-71
2023/10/19 07:45:36;;;;;;;4.70;3.60;;;9.10;99.90;;;;;;5015187;28;20045;-75
2023/10/19 07:48:10;;;;;;;4.68;3.65;;;9.20;99.90;;;;;;4998077;28;20497;-74
2023/10/19 07:50:38;;;;;;;3.83;3.17;;;9.20;99.90;;;;;;5013874;28;20041;-74
2023/10/19 07:53:04;;;;;;;5.18;3.50;;;9.20;99.90;;;;;;5013217;28;20061;-73
2023/10/19 07:55:31;;;;;;;4.88;3.75;;;9.20;99.90;;;;;;5014263;28;20049;-75
2023/10/19 07:58:00;;;;;;;4.63;3.40;;;9.20;99.90;;;;;;5013742;28;20045;-76
2023/10/19 08:00:26;;;;;;;5.50;4.00;;;9.20;99.90;;;;;;5014902;28;20474;-74
2023/10/19 08:02:53;;;;;;;5.57;3.83;;;9.20;99.90;;;;;;5015542;28;20046;-71
2023/10/19 08:05:19;;;;;;;5.45;3.88;;;9.20;99.90;;;;;;5014837;28;20116;-71
2023/10/19 08:07:49;;;;;;;5.13;3.83;;;9.30;99.90;;;;;;5014646;28;20140;-71
2023/10/19 08:10:20;;;;;;;5.57;4.35;;;9.30;99.90;;;;;;5014678;28;20169;-74
2023/10/19 08:12:47;;;;;;;6.20;4.68;;;9.30;99.90;;;;;;5014574;28;20095;-73
2023/10/19 08:15:15;;;;;;;5.97;4.32;;;9.30;99.90;;;;;;5013737;28;20049;-73
2023/10/19 08:17:50;;;;;;;6.45;5.20;;;9.30;99.90;;;;;;5013383;28;20042;-73
2023/10/19 08:20:16;;;;;;;7.13;4.43;;;9.30;99.90;;;;;;5014429;28;20057;-73
2023/10/19 08:22:43;;;;;;;5.70;4.38;;;9.30;99.90;;;;;;5014478;28;20342;-73
2023/10/19 08:25:11;;;;;;;6.47;4.70;;;9.40;99.90;;;;;;5013421;28;20046;-74
2023/10/19 08:27:44;;;;;;;7.32;4.50;;;9.30;99.90;;;;;;5015022;28;20052;-73
2023/10/19 08:30:13;;;;;;;6.57;4.72;;;9.30;99.90;;;;;;5015011;28;20042;-73
2023/10/19 08:32:42;;;;;;;6.82;4.80;;;9.40;99.90;;;;;;5014265;28;20155;-73
2023/10/19 08:35:12;;;;;;;6.68;4.85;;;9.40;99.90;;;;;;5013596;28;20085;-73
2023/10/19 08:37:39;;;;;;;6.35;4.45;;;9.40;99.90;;;;;;5013289;28;20049;-73
2023/10/19 08:40:14;;;;;;;5.97;4.85;;;9.50;99.90;;;;;;5014613;28;20052;-73
2023/10/19 08:42:45;;;;;;;6.60;4.97;;;9.50;99.90;;;;;;5012976;28;20061;-73
2023/10/19 08:45:14;;;;;;;7.10;5.00;;;9.50;99.90;;;;;;5013942;28;20482;-73
2023/10/19 08:47:57;;;;;;;6.30;5.13;;;9.50;99.90;;;;;;5013444;28;20125;-73
2023/10/19 08:50:28;;;;;;;7.30;5.00;;;9.60;99.90;;;;;;5013538;28;20081;-73
2023/10/19 08:52:58;;;;;;;7.35;5.10;;;9.60;99.90;;;;;;5013970;28;20475;-73
2023/10/19 08:55:25;;;;;;;8.25;5.70;;;9.60;99.90;;;;;;5014475;28;20052;-74
2023/10/19 08:57:52;;;;;;;8.10;5.50;;;9.60;99.90;;;;;;5012797;28;20057;-75
2023/10/19 09:00:19;;;;;;;8.57;5.95;;;9.70;99.90;;;;;;5013669;28;20046;-75
2023/10/19 09:02:46;;;;;;;8.70;5.72;;;9.70;99.90;;;;;;5013918;28;20042;-73
2023/10/19 09:05:25;;;;;;;8.85;5.82;;;9.80;99.90;;;;;;5012721;28;20046;-72
2023/10/19 09:07:55;;;;;;;8.02;5.53;;;9.80;99.90;;;;;;5013751;28;20121;-73
2023/10/19 09:10:26;;;;;;;6.88;5.35;;;9.90;99.90;;;;;;5013767;28;20046;-74
2023/10/19 09:13:09;;;;;;;7.45;5.30;;;9.90;99.90;;;;;;5013776;28;20037;-72
2023/10/19 09:15:39;;;;;;;9.23;6.30;;;9.90;99.90;;;;;;5013927;28;20125;-75
2023/10/19 09:18:21;;;;;;;8.60;6.38;;;9.90;99.90;;;;;;5013856;28;20045;-72
2023/10/19 09:20:52;;;;;;;8.25;6.22;;;10.00;99.90;;;;;;5014578;28;20061;-73
2023/10/19 09:23:22;;;;;;;11.55;6.97;;;10.00;99.90;;;;;;5014512;28;20042;-72
2023/10/19 09:25:55;;;;;;;11.40;7.80;;;10.00;99.90;;;;;;5013625;28;20048;-73
2023/10/19 09:28:24;;;;;;;13.10;8.38;;;10.10;99.90;;;;;;5013742;28;20128;-73
2023/10/19 09:30:51;;;;;;;18.02;12.07;;;10.10;99.90;;;;;;5013591;28;20137;-72
2023/10/19 09:33:17;;;;;;;17.80;12.05;;;10.10;99.90;;;;;;5013530;28;20053;-69
2023/10/19 09:35:53;;;;;;;15.95;11.35;;;10.10;99.90;;;;;;5013416;28;20420;-71
2023/10/19 09:38:24;;;;;;;14.63;9.68;;;10.10;99.90;;;;;;5013611;28;20046;-72
2023/10/19 09:40:51;;;;;;;13.15;9.70;;;10.10;99.90;;;;;;5013632;28;20041;-72
2023/10/19 09:43:24;;;;;;;12.23;8.98;;;10.20;99.90;;;;;;5012830;28;20363;-71
2023/10/19 09:45:54;;;;;;;11.02;7.80;;;10.20;99.90;;;;;;5014161;28;20053;-73
2023/10/19 09:48:20;;;;;;;11.60;7.88;;;10.20;99.90;;;;;;5013407;28;20046;-72
2023/10/19 09:50:55;;;;;;;13.23;8.18;;;10.20;99.90;;;;;;5013507;28;20042;-72
2023/10/19 09:53:29;;;;;;;9.80;7.20;;;10.30;99.90;;;;;;5013764;28;20062;-71
2023/10/19 09:55:58;;;;;;;10.13;7.05;;;10.30;99.90;;;;;;5014170;28;20041;-71
2023/10/19 09:58:44;;;;;;;9.68;6.60;;;10.30;99.90;;;;;;5013032;28;20494;-74
2023/10/19 10:01:13;;;;;;;8.73;6.43;;;10.40;99.90;;;;;;5013998;28;20049;-73
2023/10/19 10:03:47;;;;;;;11.00;6.32;;;10.40;99.90;;;;;;5013363;28;20042;-74
2023/10/19 10:06:29;;;;;;;12.02;6.45;;;10.40;99.90;;;;;;5013953;28;20066;-73
2023/10/19 10:08:55;;;;;;;10.85;6.97;;;10.40;99.90;;;;;;5014019;28;20050;-73
2023/10/19 10:11:26;;;;;;;9.90;6.78;;;10.40;99.90;;;;;;5013579;28;20085;-73
2023/10/19 10:13:54;;;;;;;9.38;7.20;;;10.50;99.90;;;;;;5013929;28;20048;-76
2023/10/19 10:16:26;;;;;;;8.20;6.50;;;10.50;99.90;;;;;;5013024;28;20046;-75
2023/10/19 10:18:58;;;;;;;10.23;6.88;;;10.60;99.90;;;;;;5015236;28;20096;-73
2023/10/19 10:21:25;;;;;;;9.30;7.05;;;10.60;99.90;;;;;;5016950;28;20120;-73
2023/10/19 10:24:02;;;;;;;9.73;7.07;;;10.60;99.90;;;;;;5016747;28;20084;-73
2023/10/19 10:26:31;;;;;;;10.23;7.40;;;10.70;99.90;;;;;;5015785;28;20049;-73
2023/10/19 10:29:23;;;;;;;10.25;7.63;;;10.60;99.90;;;;;;5016599;28;20053;-77
2023/10/19 10:31:50;;;;;;;9.95;7.25;;;10.70;99.90;;;;;;5017089;28;20077;-76
2023/10/19 10:34:36;;;;;;;9.50;6.72;;;10.70;99.90;;;;;;5016590;28;20085;-76
2023/10/19 10:37:07;;;;;;;;;;;10.70;99.90;;;;;;5016863;28;20371;-76
2023/10/19 10:39:36;;;;;;;9.80;6.70;;;10.70;99.90;;;;;;5016565;28;19917;-76
2023/10/19 10:42:04;;;;;;;13.60;9.25;;;10.60;99.90;;;;;;5016931;28;20350;-77
2023/10/19 10:44:52;;;;;;;25.25;15.10;;;10.60;99.90;;;;;;5016900;28;20042;-78
2023/10/19 10:47:21;;;;;;;25.27;16.83;;;10.70;99.90;;;;;;5016416;28;20053;-76
2023/10/19 10:49:58;;;;;;;31.65;17.80;;;10.70;99.90;;;;;;5016177;28;20046;-76
2023/10/19 10:52:24;;;;;;;25.35;15.57;;;10.70;99.90;;;;;;5014994;28;20093;-77
2023/10/19 10:54:50;;;;;;;20.10;13.13;;;10.70;99.90;;;;;;5015162;28;20046;-72
2023/10/19 10:57:16;;;;;;;15.98;10.52;;;10.70;99.90;;;;;;5015189;28;20356;-72
2023/10/19 10:59:41;;;;;;;14.02;9.55;;;10.70;99.90;;;;;;5016387;28;20049;-73
2023/10/19 11:02:21;;;;;;;17.05;11.48;;;10.70;99.90;;;;;;5015884;28;20074;-73
2023/10/19 11:04:47;;;;;;;16.55;11.35;;;10.70;99.90;;;;;;5016090;28;20481;-72
2023/10/19 11:07:20;;;;;;;18.92;12.27;;;10.70;99.90;;;;;;5015947;28;20045;-72
2023/10/19 11:09:48;;;;;;;20.15;12.75;;;10.70;99.90;;;;;;5015775;28;20124;-73
2023/10/19 11:12:19;;;;;;;15.75;11.15;;;10.80;99.90;;;;;;5015714;28;20077;-73
2023/10/19 11:15:09;;;;;;;13.05;9.40;;;10.80;99.90;;;;;;5016278;28;20378;-74
2023/10/19 11:17:43;;;;;;;11.77;8.65;;;10.80;99.90;;;;;;5015496;28;20344;-73
2023/10/19 11:20:20;;;;;;;10.73;8.13;;;10.80;99.90;;;;;;5016459;28;20045;-74
2023/10/19 11:22:51;;;;;;;11.77;7.70;;;10.80;99.90;;;;;;5015117;28;20463;-73
2023/10/19 11:25:27;;;;;;;9.68;7.53;;;10.90;99.90;;;;;;5015724;28;20426;-74
2023/10/19 11:27:57;;;;;;;10.27;7.47;;;10.90;99.90;;;;;;5015488;28;20112;-74
2023/10/19 11:30:31;;;;;;;9.50;6.90;;;10.90;99.90;;;;;;5014604;28;20042;-73
2023/10/19 11:32:59;;;;;;;9.25;6.75;;;10.90;99.90;;;;;;5014119;28;20049;-74
2023/10/19 11:35:29;;;;;;;10.07;7.10;;;10.90;99.90;;;;;;5014619;28;20371;-74
2023/10/19 11:38:00;;;;;;;8.85;6.85;;;10.90;99.90;;;;;;5015838;28;20042;-74
2023/10/19 11:40:27;;;;;;;9.40;7.15;;;10.90;99.90;;;;;;5015239;28;20099;-74
2023/10/19 11:42:56;;;;;;;8.68;6.95;;;11.00;99.90;;;;;;5014229;28;20046;-74
2023/10/19 11:45:23;;;;;;;9.45;7.15;;;11.00;99.90;;;;;;5015139;28;20489;-73
2023/10/19 11:47:50;;;;;;;10.63;7.05;;;11.10;99.90;;;;;;5015071;28;20204;-73
2023/10/19 11:50:18;;;;;;;8.30;6.82;;;11.20;99.90;;;;;;5014054;28;20475;-74
2023/10/19 11:52:47;;;;;;;9.55;7.47;;;11.20;99.90;;;;;;5014801;28;20069;-73
2023/10/19 11:55:13;;;;;;;9.38;7.00;;;11.30;99.90;;;;;;5013953;28;20124;-73
2023/10/19 11:57:40;;;;;;;8.68;7.63;;;11.30;99.90;;;;;;5014489;28;20046;-74
2023/10/19 12:00:08;;;;;;;9.30;6.60;;;11.30;99.90;;;;;;5014859;28;20451;-74
2023/10/19 12:02:37;;;;;;;9.77;7.13;;;11.40;99.90;;;;;;5014089;28;20041;-73
2023/10/19 12:05:09;;;;;;;9.57;6.72;;;11.50;99.90;;;;;;5014785;28;20045;-73
2023/10/19 12:07:36;;;;;;;9.43;7.00;;;11.50;99.90;;;;;;5015017;28;20042;-73
2023/10/19 12:10:03;;;;;;;9.52;7.50;;;11.60;99.90;;;;;;5013720;28;20045;-74
2023/10/19 12:12:29;;;;;;;9.07;6.93;;;11.70;99.90;;;;;;5014670;28;20476;-74
2023/10/19 12:14:55;;;;;;;10.07;7.40;;;11.70;99.90;;;;;;5013751;28;20120;-74
2023/10/19 12:17:22;;;;;;;9.82;7.28;;;11.70;99.90;;;;;;5014646;28;20045;-74
2023/10/19 12:19:48;;;;;;;8.80;7.00;;;11.70;99.90;;;;;;5013588;28;20390;-74
2023/10/19 12:22:13;;;;;;;9.05;7.20;;;11.80;99.90;;;;;;5014496;28;20044;-74
2023/10/19 12:24:39;;;;;;;10.27;7.40;;;11.80;99.90;;;;;;5014894;28;20041;-74
2023/10/19 12:27:05;;;;;;;9.27;7.38;;;11.80;99.90;;;;;;5013219;28;20049;-74
2023/10/19 12:29:31;;;;;;;9.93;6.93;;;11.90;99.90;;;;;;5013199;28;20034;-74
2023/10/19 12:31:57;;;;;;;10.75;7.18;;;11.80;99.90;;;;;;5013056;28;20049;-74
2023/10/19 12:34:23;;;;;;;8.23;6.13;;;11.80;99.90;;;;;;5013988;28;20548;-74
2023/10/19 12:36:51;;;;;;;7.75;6.43;;;11.80;99.90;;;;;;4997733;28;20132;-74
2023/10/19 12:39:35;;;;;;;9.23;6.40;;;11.80;99.90;;;;;;5014025;28;20097;-74
2023/10/19 12:42:01;;;;;;;7.93;6.53;;;11.80;99.90;;;;;;5012802;28;20049;-74
2023/10/19 12:44:29;;;;;;;9.05;6.70;;;11.80;99.90;;;;;;5014090;28;20057;-74
2023/10/19 12:46:57;;;;;;;9.50;6.75;;;11.80;99.90;;;;;;5014486;28;20042;-74
2023/10/19 12:49:25;;;;;;;8.18;6.22;;;11.90;99.90;;;;;;5014092;28;20053;-73
2023/10/19 12:51:52;;;;;;;9.27;6.38;;;11.90;99.90;;;;;;5013883;28;20433;-72
2023/10/19 12:54:18;;;;;;;9.65;6.53;;;11.90;99.90;;;;;;5014016;28;20058;-72
2023/10/19 12:56:44;;;;;;;8.77;6.93;;;11.80;99.90;;;;;;5013977;28;20475;-72
2023/10/19 12:59:09;;;;;;;9.82;7.00;;;11.80;99.90;;;;;;5014738;28;20077;-74
2023/10/19 13:01:35;;;;;;;8.88;6.53;;;11.80;99.90;;;;;;5013764;28;20048;-76
2023/10/19 13:04:13;;;;;;;8.85;6.50;;;11.90;99.90;;;;;;5013031;28;20046;-73
2023/10/19 13:06:40;;;;;;;9.18;7.00;;;12.10;99.90;;;;;;5014025;28;20049;-73
2023/10/19 13:09:08;;;;;;;7.85;6.43;;;12.10;99.90;;;;;;5013876;28;20048;-73
2023/10/19 13:11:34;;;;;;;7.55;5.90;;;12.10;99.90;;;;;;5013478;28;20092;-73
2023/10/19 13:14:06;;;;;;;10.07;7.43;;;12.10;99.90;;;;;;5012555;28;20045;-73
2023/10/19 13:16:32;;;;;;;8.00;6.60;;;12.00;99.90;;;;;;5014671;28;20077;-73
2023/10/19 13:18:57;;;;;;;10.70;7.60;;;11.90;99.90;;;;;;5013833;28;20521;-73